sensor_id;sensor_type;location;lat;lon;timestamp;P1;durP1;ratioP1;P2;durP2;ratioP2
55090;SDS011;40985;53.180;5.800;2023-05-23T00:00:28;38.05;;;14.80;;
55090;SDS011;40985;53.180;5.800;2023-05-23T00:02:53;36.85;;;14.25;;
55090;SDS011;40985;53.180;5.800;2023-05-23T00:05:19;35.40;;;13.57;;
55090;SDS011;40985;53.180;5.800;2023-05-23T00:07:44;35.58;;;13.10;;
55090;SDS011;40985;53.180;5.800;2023-05-23T00:10:12;26.67;;;11.85;;
55090;SDS011;40985;53.180;5.800;2023-05-23T00:12:38;31.83;;;12.32;;
55090;SDS011;40985;53.180;5.800;2023-05-23T00:15:06;26.85;;;12.27;;
55090;SDS011;40985;53.180;5.800;2023-05-23T00:17:33;31.63;;;12.18;;
55090;SDS011;40985;53.180;5.800;2023-05-23T00:20:02;33.42;;;12.27;;
55090;SDS011;40985;53.180;5.800;2023-05-23T00:22:28;28.15;;;11.15;;
55090;SDS011;40985;53.180;5.800;2023-05-23T00:24:53;24.65;;;10.70;;
55090;SDS011;40985;53.180;5.800;2023-05-23T00:27:22;29.25;;;11.27;;
55090;SDS011;40985;53.180;5.800;2023-05-23T00:29:47;25.20;;;10.82;;
55090;SDS011;40985;53.180;5.800;2023-05-23T00:32:13;31.27;;;11.80;;
55090;SDS011;40985;53.180;5.800;2023-05-23T00:34:39;26.73;;;10.95;;
55090;SDS011;40985;53.180;5.800;2023-05-23T00:37:05;28.05;;;10.57;;
55090;SDS011;40985;53.180;5.800;2023-05-23T00:39:30;24.75;;;9.35;;
55090;SDS011;40985;53.180;5.800;2023-05-23T00:41:56;29.10;;;10.00;;
55090;SDS011;40985;53.180;5.800;2023-05-23T00:44:22;26.00;;;10.93;;
55090;SDS011;40985;53.180;5.800;2023-05-23T00:46:49;26.60;;;10.77;;
55090;SDS011;40985;53.180;5.800;2023-05-23T00:49:19;24.45;;;10.98;;
55090;SDS011;40985;53.180;5.800;2023-05-23T00:51:45;22.15;;;9.48;;
55090;SDS011;40985;53.180;5.800;2023-05-23T00:54:11;23.02;;;10.10;;
55090;SDS011;40985;53.180;5.800;2023-05-23T00:56:38;25.45;;;8.60;;
55090;SDS011;40985;53.180;5.800;2023-05-23T00:59:04;23.95;;;8.85;;
55090;SDS011;40985;53.180;5.800;2023-05-23T01:01:30;23.92;;;8.88;;
55090;SDS011;40985;53.180;5.800;2023-05-23T01:03:57;23.75;;;9.70;;
55090;SDS011;40985;53.180;5.800;2023-05-23T01:06:23;23.90;;;9.10;;
55090;SDS011;40985;53.180;5.800;2023-05-23T01:08:49;24.15;;;8.88;;
55090;SDS011;40985;53.180;5.800;2023-05-23T01:11:22;19.15;;;9.35;;
55090;SDS011;40985;53.180;5.800;2023-05-23T01:14:02;22.50;;;8.80;;
55090;SDS011;40985;53.180;5.800;2023-05-23T01:21:41;18.90;;;8.20;;
55090;SDS011;40985;53.180;5.800;2023-05-23T01:29:06;23.30;;;8.70;;
55090;SDS011;40985;53.180;5.800;2023-05-23T01:31:42;19.58;;;7.43;;
55090;SDS011;40985;53.180;5.800;2023-05-23T01:34:11;23.38;;;7.68;;
55090;SDS011;40985;53.180;5.800;2023-05-23T01:36:39;18.45;;;7.28;;
55090;SDS011;40985;53.180;5.800;2023-05-23T01:39:06;22.67;;;7.05;;
55090;SDS011;40985;53.180;5.800;2023-05-23T01:41:32;18.85;;;6.82;;
55090;SDS011;40985;53.180;5.800;2023-05-23T01:43:57;20.38;;;7.47;;
55090;SDS011;40985;53.180;5.800;2023-05-23T01:46:23;18.48;;;6.68;;
55090;SDS011;40985;53.180;5.800;2023-05-23T01:48:50;22.95;;;6.57;;
55090;SDS011;40985;53.180;5.800;2023-05-23T01:51:17;18.65;;;6.88;;
55090;SDS011;40985;53.180;5.800;2023-05-23T01:53:44;17.65;;;6.25;;
55090;SDS011;40985;53.180;5.800;2023-05-23T01:56:10;22.73;;;6.88;;
55090;SDS011;40985;53.180;5.800;2023-05-23T01:58:36;18.58;;;7.03;;
55090;SDS011;40985;53.180;5.800;2023-05-23T02:01:02;16.63;;;6.47;;
55090;SDS011;40985;53.180;5.800;2023-05-23T02:03:28;24.52;;;6.43;;
55090;SDS011;40985;53.180;5.800;2023-05-23T02:05:53;18.60;;;5.72;;
55090;SDS011;40985;53.180;5.800;2023-05-23T02:08:19;20.50;;;7.32;;
55090;SDS011;40985;53.180;5.800;2023-05-23T02:10:45;21.98;;;6.72;;
55090;SDS011;40985;53.180;5.800;2023-05-23T02:13:10;21.88;;;5.90;;
55090;SDS011;40985;53.180;5.800;2023-05-23T02:15:36;24.67;;;7.55;;
55090;SDS011;40985;53.180;5.800;2023-05-23T02:18:01;22.60;;;6.13;;
55090;SDS011;40985;53.180;5.800;2023-05-23T02:20:28;22.85;;;6.53;;
55090;SDS011;40985;53.180;5.800;2023-05-23T02:22:53;23.55;;;6.45;;
55090;SDS011;40985;53.180;5.800;2023-05-23T02:25:19;25.20;;;6.63;;
55090;SDS011;40985;53.180;5.800;2023-05-23T02:27:45;22.88;;;7.60;;
55090;SDS011;40985;53.180;5.800;2023-05-23T02:30:10;20.35;;;5.68;;
55090;SDS011;40985;53.180;5.800;2023-05-23T02:32:36;18.90;;;6.03;;
55090;SDS011;40985;53.180;5.800;2023-05-23T02:35:02;28.83;;;5.80;;
55090;SDS011;40985;53.180;5.800;2023-05-23T02:37:29;19.70;;;5.57;;
55090;SDS011;40985;53.180;5.800;2023-05-23T02:39:55;19.75;;;5.25;;
55090;SDS011;40985;53.180;5.800;2023-05-23T02:42:21;20.63;;;5.57;;
55090;SDS011;40985;53.180;5.800;2023-05-23T02:44:46;20.35;;;5.22;;
55090;SDS011;40985;53.180;5.800;2023-05-23T02:47:12;21.05;;;4.95;;
55090;SDS011;40985;53.180;5.800;2023-05-23T02:49:38;24.30;;;5.20;;
55090;SDS011;40985;53.180;5.800;2023-05-23T02:52:03;21.40;;;4.80;;
55090;SDS011;40985;53.180;5.800;2023-05-23T02:54:29;16.65;;;3.92;;
55090;SDS011;40985;53.180;5.800;2023-05-23T02:56:55;20.33;;;4.40;;
55090;SDS011;40985;53.180;5.800;2023-05-23T02:59:21;17.13;;;3.75;;
55090;SDS011;40985;53.180;5.800;2023-05-23T03:01:47;18.73;;;3.88;;
55090;SDS011;40985;53.180;5.800;2023-05-23T03:04:13;16.98;;;3.55;;
55090;SDS011;40985;53.180;5.800;2023-05-23T03:06:38;12.63;;;2.85;;
55090;SDS011;40985;53.180;5.800;2023-05-23T03:09:06;15.20;;;3.35;;
55090;SDS011;40985;53.180;5.800;2023-05-23T03:11:32;13.35;;;2.80;;
55090;SDS011;40985;53.180;5.800;2023-05-23T03:13:58;16.08;;;2.85;;
55090;SDS011;40985;53.180;5.800;2023-05-23T03:16:24;15.35;;;2.75;;
55090;SDS011;40985;53.180;5.800;2023-05-23T03:18:49;16.13;;;3.47;;
55090;SDS011;40985;53.180;5.800;2023-05-23T03:21:15;18.45;;;4.13;;
55090;SDS011;40985;53.180;5.800;2023-05-23T03:23:41;14.60;;;2.78;;
55090;SDS011;40985;53.180;5.800;2023-05-23T03:26:07;13.00;;;3.33;;
55090;SDS011;40985;53.180;5.800;2023-05-23T03:28:32;13.75;;;3.33;;
55090;SDS011;40985;53.180;5.800;2023-05-23T03:30:58;13.98;;;3.25;;
55090;SDS011;40985;53.180;5.800;2023-05-23T03:33:23;18.02;;;4.60;;
55090;SDS011;40985;53.180;5.800;2023-05-23T03:35:49;16.80;;;3.28;;
55090;SDS011;40985;53.180;5.800;2023-05-23T03:38:16;14.38;;;2.83;;
55090;SDS011;40985;53.180;5.800;2023-05-23T03:40:42;17.67;;;3.15;;
55090;SDS011;40985;53.180;5.800;2023-05-23T03:43:08;12.30;;;2.80;;
55090;SDS011;40985;53.180;5.800;2023-05-23T03:45:34;14.32;;;2.30;;
55090;SDS011;40985;53.180;5.800;2023-05-23T03:47:59;14.90;;;2.15;;
55090;SDS011;40985;53.180;5.800;2023-05-23T03:50:25;19.17;;;3.92;;
55090;SDS011;40985;53.180;5.800;2023-05-23T03:52:51;12.13;;;2.58;;
55090;SDS011;40985;53.180;5.800;2023-05-23T03:55:19;15.43;;;3.00;;
55090;SDS011;40985;53.180;5.800;2023-05-23T03:57:48;18.25;;;3.30;;
55090;SDS011;40985;53.180;5.800;2023-05-23T04:00:15;15.68;;;2.85;;
55090;SDS011;40985;53.180;5.800;2023-05-23T04:02:43;17.88;;;3.38;;
55090;SDS011;40985;53.180;5.800;2023-05-23T04:05:10;16.98;;;3.47;;
55090;SDS011;40985;53.180;5.800;2023-05-23T04:07:36;10.70;;;2.50;;
55090;SDS011;40985;53.180;5.800;2023-05-23T04:10:02;18.45;;;3.22;;
55090;SDS011;40985;53.180;5.800;2023-05-23T04:12:29;21.15;;;3.38;;
55090;SDS011;40985;53.180;5.800;2023-05-23T04:14:55;12.57;;;3.55;;
55090;SDS011;40985;53.180;5.800;2023-05-23T04:17:24;11.73;;;2.78;;
55090;SDS011;40985;53.180;5.800;2023-05-23T04:19:50;14.57;;;2.83;;
55090;SDS011;40985;53.180;5.800;2023-05-23T04:22:16;13.18;;;3.45;;
55090;SDS011;40985;53.180;5.800;2023-05-23T04:24:42;11.57;;;2.65;;
55090;SDS011;40985;53.180;5.800;2023-05-23T04:27:07;11.02;;;3.47;;
55090;SDS011;40985;53.180;5.800;2023-05-23T04:29:33;12.73;;;3.70;;
55090;SDS011;40985;53.180;5.800;2023-05-23T04:32:00;15.27;;;4.22;;
55090;SDS011;40985;53.180;5.800;2023-05-23T04:34:26;12.85;;;3.75;;
55090;SDS011;40985;53.180;5.800;2023-05-23T04:36:52;13.90;;;3.83;;
55090;SDS011;40985;53.180;5.800;2023-05-23T04:39:18;14.27;;;4.07;;
55090;SDS011;40985;53.180;5.800;2023-05-23T04:41:44;18.52;;;4.40;;
55090;SDS011;40985;53.180;5.800;2023-05-23T04:44:10;14.73;;;5.03;;
55090;SDS011;40985;53.180;5.800;2023-05-23T04:46:36;11.93;;;4.00;;
55090;SDS011;40985;53.180;5.800;2023-05-23T04:49:06;13.40;;;4.53;;
55090;SDS011;40985;53.180;5.800;2023-05-23T04:51:32;15.00;;;4.25;;
55090;SDS011;40985;53.180;5.800;2023-05-23T04:53:59;14.85;;;4.15;;
55090;SDS011;40985;53.180;5.800;2023-05-23T04:56:25;10.35;;;3.95;;
55090;SDS011;40985;53.180;5.800;2023-05-23T04:58:52;13.18;;;3.67;;
55090;SDS011;40985;53.180;5.800;2023-05-23T05:01:18;11.57;;;3.42;;
55090;SDS011;40985;53.180;5.800;2023-05-23T05:03:44;7.07;;;2.28;;
55090;SDS011;40985;53.180;5.800;2023-05-23T05:06:12;9.05;;;1.85;;
55090;SDS011;40985;53.180;5.800;2023-05-23T05:08:38;28.33;;;4.07;;
55090;SDS011;40985;53.180;5.800;2023-05-23T05:11:04;11.43;;;2.35;;
55090;SDS011;40985;53.180;5.800;2023-05-23T05:13:30;12.88;;;3.35;;
55090;SDS011;40985;53.180;5.800;2023-05-23T05:15:56;16.30;;;3.28;;
55090;SDS011;40985;53.180;5.800;2023-05-23T05:18:23;12.95;;;1.88;;
55090;SDS011;40985;53.180;5.800;2023-05-23T05:20:50;10.98;;;2.00;;
55090;SDS011;40985;53.180;5.800;2023-05-23T05:23:16;9.70;;;1.92;;
55090;SDS011;40985;53.180;5.800;2023-05-23T05:25:42;14.45;;;2.97;;
55090;SDS011;40985;53.180;5.800;2023-05-23T05:28:07;19.58;;;2.22;;
55090;SDS011;40985;53.180;5.800;2023-05-23T05:30:33;17.48;;;2.17;;
55090;SDS011;40985;53.180;5.800;2023-05-23T05:33:00;19.38;;;2.30;;
55090;SDS011;40985;53.180;5.800;2023-05-23T05:35:33;15.60;;;2.15;;
55090;SDS011;40985;53.180;5.800;2023-05-23T05:37:59;11.10;;;2.45;;
55090;SDS011;40985;53.180;5.800;2023-05-23T05:40:26;16.33;;;2.22;;
55090;SDS011;40985;53.180;5.800;2023-05-23T05:42:52;17.60;;;3.40;;
55090;SDS011;40985;53.180;5.800;2023-05-23T05:45:18;16.60;;;2.28;;
55090;SDS011;40985;53.180;5.800;2023-05-23T05:47:44;16.08;;;2.17;;
55090;SDS011;40985;53.180;5.800;2023-05-23T05:50:10;17.67;;;2.08;;
55090;SDS011;40985;53.180;5.800;2023-05-23T05:52:36;23.70;;;4.03;;
55090;SDS011;40985;53.180;5.800;2023-05-23T05:55:06;19.00;;;2.60;;
55090;SDS011;40985;53.180;5.800;2023-05-23T05:57:35;12.57;;;2.08;;
55090;SDS011;40985;53.180;5.800;2023-05-23T06:00:08;17.75;;;2.08;;
55090;SDS011;40985;53.180;5.800;2023-05-23T06:02:39;19.80;;;2.25;;
55090;SDS011;40985;53.180;5.800;2023-05-23T06:05:11;12.07;;;1.23;;
55090;SDS011;40985;53.180;5.800;2023-05-23T06:07:38;14.35;;;2.22;;
55090;SDS011;40985;53.180;5.800;2023-05-23T06:10:04;17.83;;;2.25;;
55090;SDS011;40985;53.180;5.800;2023-05-23T06:12:30;25.48;;;3.13;;
55090;SDS011;40985;53.180;5.800;2023-05-23T06:14:56;21.70;;;2.03;;
55090;SDS011;40985;53.180;5.800;2023-05-23T06:17:22;20.35;;;2.72;;
55090;SDS011;40985;53.180;5.800;2023-05-23T06:19:47;17.90;;;2.50;;
55090;SDS011;40985;53.180;5.800;2023-05-23T06:22:13;14.27;;;2.03;;
55090;SDS011;40985;53.180;5.800;2023-05-23T06:24:39;16.88;;;1.85;;
55090;SDS011;40985;53.180;5.800;2023-05-23T06:27:04;15.52;;;2.80;;
55090;SDS011;40985;53.180;5.800;2023-05-23T06:29:30;17.85;;;1.67;;
55090;SDS011;40985;53.180;5.800;2023-05-23T06:31:56;18.73;;;2.40;;
55090;SDS011;40985;53.180;5.800;2023-05-23T06:34:21;10.95;;;1.73;;
55090;SDS011;40985;53.180;5.800;2023-05-23T06:36:47;13.75;;;2.67;;
55090;SDS011;40985;53.180;5.800;2023-05-23T06:39:13;14.13;;;1.88;;
55090;SDS011;40985;53.180;5.800;2023-05-23T06:41:39;14.75;;;1.55;;
55090;SDS011;40985;53.180;5.800;2023-05-23T06:44:05;15.38;;;2.13;;
55090;SDS011;40985;53.180;5.800;2023-05-23T06:46:31;15.13;;;2.35;;
55090;SDS011;40985;53.180;5.800;2023-05-23T06:48:56;13.32;;;1.95;;
55090;SDS011;40985;53.180;5.800;2023-05-23T06:51:22;13.55;;;1.65;;
55090;SDS011;40985;53.180;5.800;2023-05-23T06:53:48;11.32;;;1.38;;
55090;SDS011;40985;53.180;5.800;2023-05-23T06:56:14;20.10;;;1.88;;
55090;SDS011;40985;53.180;5.800;2023-05-23T06:58:40;17.02;;;1.95;;
55090;SDS011;40985;53.180;5.800;2023-05-23T07:01:06;15.15;;;2.05;;
55090;SDS011;40985;53.180;5.800;2023-05-23T07:03:31;15.20;;;1.77;;
55090;SDS011;40985;53.180;5.800;2023-05-23T07:05:57;9.38;;;1.65;;
55090;SDS011;40985;53.180;5.800;2023-05-23T07:08:23;18.25;;;2.10;;
55090;SDS011;40985;53.180;5.800;2023-05-23T07:10:49;19.23;;;2.92;;
55090;SDS011;40985;53.180;5.800;2023-05-23T07:13:14;14.85;;;1.75;;
55090;SDS011;40985;53.180;5.800;2023-05-23T07:15:40;16.55;;;1.95;;
55090;SDS011;40985;53.180;5.800;2023-05-23T07:18:06;17.70;;;1.90;;
55090;SDS011;40985;53.180;5.800;2023-05-23T07:20:32;13.48;;;1.75;;
55090;SDS011;40985;53.180;5.800;2023-05-23T07:22:58;17.63;;;2.88;;
55090;SDS011;40985;53.180;5.800;2023-05-23T07:25:24;17.52;;;2.42;;
55090;SDS011;40985;53.180;5.800;2023-05-23T07:27:51;16.83;;;1.60;;
55090;SDS011;40985;53.180;5.800;2023-05-23T07:30:19;16.42;;;3.17;;
55090;SDS011;40985;53.180;5.800;2023-05-23T07:32:46;11.55;;;1.30;;
55090;SDS011;40985;53.180;5.800;2023-05-23T07:35:13;13.02;;;1.88;;
55090;SDS011;40985;53.180;5.800;2023-05-23T07:37:39;8.45;;;1.30;;
55090;SDS011;40985;53.180;5.800;2023-05-23T07:40:05;13.60;;;1.42;;
55090;SDS011;40985;53.180;5.800;2023-05-23T07:42:34;13.07;;;1.65;;
55090;SDS011;40985;53.180;5.800;2023-05-23T07:45:01;20.15;;;1.65;;
55090;SDS011;40985;53.180;5.800;2023-05-23T07:47:27;11.68;;;1.25;;
55090;SDS011;40985;53.180;5.800;2023-05-23T07:49:52;11.60;;;2.05;;
55090;SDS011;40985;53.180;5.800;2023-05-23T07:52:18;16.23;;;1.73;;
55090;SDS011;40985;53.180;5.800;2023-05-23T07:54:44;14.55;;;1.70;;
55090;SDS011;40985;53.180;5.800;2023-05-23T07:57:10;14.18;;;2.47;;
55090;SDS011;40985;53.180;5.800;2023-05-23T07:59:36;11.38;;;1.77;;
55090;SDS011;40985;53.180;5.800;2023-05-23T08:02:03;20.40;;;2.63;;
55090;SDS011;40985;53.180;5.800;2023-05-23T08:04:28;17.15;;;2.03;;
55090;SDS011;40985;53.180;5.800;2023-05-23T08:06:55;17.20;;;2.78;;
55090;SDS011;40985;53.180;5.800;2023-05-23T08:09:23;17.95;;;1.60;;
55090;SDS011;40985;53.180;5.800;2023-05-23T08:11:49;12.00;;;1.33;;
55090;SDS011;40985;53.180;5.800;2023-05-23T08:14:15;13.00;;;1.63;;
55090;SDS011;40985;53.180;5.800;2023-05-23T08:16:40;14.35;;;2.03;;
55090;SDS011;40985;53.180;5.800;2023-05-23T08:19:06;15.60;;;1.40;;
55090;SDS011;40985;53.180;5.800;2023-05-23T08:21:32;16.00;;;2.25;;
55090;SDS011;40985;53.180;5.800;2023-05-23T08:23:58;14.43;;;1.80;;
55090;SDS011;40985;53.180;5.800;2023-05-23T08:26:24;20.60;;;2.15;;
55090;SDS011;40985;53.180;5.800;2023-05-23T08:28:51;18.70;;;2.38;;
55090;SDS011;40985;53.180;5.800;2023-05-23T08:31:17;14.15;;;1.20;;
55090;SDS011;40985;53.180;5.800;2023-05-23T08:33:43;13.88;;;1.50;;
55090;SDS011;40985;53.180;5.800;2023-05-23T08:36:09;17.60;;;2.38;;
55090;SDS011;40985;53.180;5.800;2023-05-23T08:38:34;15.25;;;1.80;;
55090;SDS011;40985;53.180;5.800;2023-05-23T08:41:00;15.65;;;1.63;;
55090;SDS011;40985;53.180;5.800;2023-05-23T08:43:26;15.43;;;1.98;;
55090;SDS011;40985;53.180;5.800;2023-05-23T08:45:53;14.88;;;2.08;;
55090;SDS011;40985;53.180;5.800;2023-05-23T08:48:19;20.88;;;2.92;;
55090;SDS011;40985;53.180;5.800;2023-05-23T08:50:46;17.77;;;1.77;;
55090;SDS011;40985;53.180;5.800;2023-05-23T08:53:15;15.80;;;1.58;;
55090;SDS011;40985;53.180;5.800;2023-05-23T08:55:48;12.30;;;1.33;;
55090;SDS011;40985;53.180;5.800;2023-05-23T08:58:16;20.25;;;2.00;;
55090;SDS011;40985;53.180;5.800;2023-05-23T09:00:44;14.13;;;1.90;;
55090;SDS011;40985;53.180;5.800;2023-05-23T09:03:11;12.77;;;1.48;;
55090;SDS011;40985;53.180;5.800;2023-05-23T09:05:38;20.40;;;2.10;;
55090;SDS011;40985;53.180;5.800;2023-05-23T09:08:04;19.23;;;1.90;;
55090;SDS011;40985;53.180;5.800;2023-05-23T09:10:29;12.80;;;2.47;;
55090;SDS011;40985;53.180;5.800;2023-05-23T09:12:55;15.95;;;2.10;;
55090;SDS011;40985;53.180;5.800;2023-05-23T09:15:22;18.15;;;2.42;;
55090;SDS011;40985;53.180;5.800;2023-05-23T09:17:48;14.55;;;1.98;;
55090;SDS011;40985;53.180;5.800;2023-05-23T09:20:15;13.75;;;1.15;;
55090;SDS011;40985;53.180;5.800;2023-05-23T09:22:47;14.77;;;1.70;;
55090;SDS011;40985;53.180;5.800;2023-05-23T09:25:13;11.82;;;1.50;;
55090;SDS011;40985;53.180;5.800;2023-05-23T09:27:39;13.32;;;1.85;;
55090;SDS011;40985;53.180;5.800;2023-05-23T09:30:07;14.63;;;1.40;;
55090;SDS011;40985;53.180;5.800;2023-05-23T09:32:35;14.50;;;1.92;;
55090;SDS011;40985;53.180;5.800;2023-05-23T09:35:02;8.27;;;1.27;;
55090;SDS011;40985;53.180;5.800;2023-05-23T09:40:08;9.00;;;0.98;;
55090;SDS011;40985;53.180;5.800;2023-05-23T09:42:36;15.80;;;1.50;;
55090;SDS011;40985;53.180;5.800;2023-05-23T09:45:06;8.48;;;1.52;;
55090;SDS011;40985;53.180;5.800;2023-05-23T09:47:32;19.08;;;1.92;;
55090;SDS011;40985;53.180;5.800;2023-05-23T09:49:58;15.70;;;2.30;;
55090;SDS011;40985;53.180;5.800;2023-05-23T09:52:24;9.25;;;1.58;;
55090;SDS011;40985;53.180;5.800;2023-05-23T09:54:50;13.68;;;1.45;;
55090;SDS011;40985;53.180;5.800;2023-05-23T09:57:16;7.88;;;0.88;;
55090;SDS011;40985;53.180;5.800;2023-05-23T09:59:52;16.38;;;1.30;;
55090;SDS011;40985;53.180;5.800;2023-05-23T10:02:31;14.18;;;1.63;;
55090;SDS011;40985;53.180;5.800;2023-05-23T10:05:08;16.75;;;1.80;;
55090;SDS011;40985;53.180;5.800;2023-05-23T10:07:43;13.60;;;1.40;;
55090;SDS011;40985;53.180;5.800;2023-05-23T10:10:09;13.52;;;1.58;;
55090;SDS011;40985;53.180;5.800;2023-05-23T10:12:45;17.95;;;2.25;;
55090;SDS011;40985;53.180;5.800;2023-05-23T10:15:14;16.02;;;1.70;;
55090;SDS011;40985;53.180;5.800;2023-05-23T10:20:48;12.80;;;1.52;;
55090;SDS011;40985;53.180;5.800;2023-05-23T10:23:16;14.10;;;1.73;;
55090;SDS011;40985;53.180;5.800;2023-05-23T10:25:43;11.98;;;1.20;;
55090;SDS011;40985;53.180;5.800;2023-05-23T10:28:09;15.95;;;1.75;;
55090;SDS011;40985;53.180;5.800;2023-05-23T10:30:37;12.07;;;1.35;;
55090;SDS011;40985;53.180;5.800;2023-05-23T10:33:04;16.13;;;2.10;;
55090;SDS011;40985;53.180;5.800;2023-05-23T10:35:39;12.52;;;1.33;;
55090;SDS011;40985;53.180;5.800;2023-05-23T10:41:11;15.50;;;1.85;;
55090;SDS011;40985;53.180;5.800;2023-05-23T10:49:36;15.23;;;1.20;;
55090;SDS011;40985;53.180;5.800;2023-05-23T10:52:01;15.57;;;2.22;;
55090;SDS011;40985;53.180;5.800;2023-05-23T10:54:33;17.92;;;1.65;;
55090;SDS011;40985;53.180;5.800;2023-05-23T10:57:03;18.80;;;1.93;;
55090;SDS011;40985;53.180;5.800;2023-05-23T10:59:29;15.85;;;1.55;;
55090;SDS011;40985;53.180;5.800;2023-05-23T11:01:55;19.30;;;2.13;;
55090;SDS011;40985;53.180;5.800;2023-05-23T11:04:24;16.33;;;1.60;;
55090;SDS011;40985;53.180;5.800;2023-05-23T11:06:52;18.15;;;2.05;;
55090;SDS011;40985;53.180;5.800;2023-05-23T11:09:19;15.85;;;1.52;;
55090;SDS011;40985;53.180;5.800;2023-05-23T11:19:36;11.75;;;1.42;;
55090;SDS011;40985;53.180;5.800;2023-05-23T11:22:03;11.65;;;1.17;;
55090;SDS011;40985;53.180;5.800;2023-05-23T11:27:30;7.43;;;1.35;;
55090;SDS011;40985;53.180;5.800;2023-05-23T11:32:40;8.85;;;0.60;;
55090;SDS011;40985;53.180;5.800;2023-05-23T11:35:09;10.48;;;1.17;;
55090;SDS011;40985;53.180;5.800;2023-05-23T11:37:36;14.90;;;1.30;;
55090;SDS011;40985;53.180;5.800;2023-05-23T11:42:50;16.55;;;1.73;;
55090;SDS011;40985;53.180;5.800;2023-05-23T11:45:20;11.98;;;1.45;;
55090;SDS011;40985;53.180;5.800;2023-05-23T11:47:49;15.98;;;1.17;;
55090;SDS011;40985;53.180;5.800;2023-05-23T11:50:15;10.98;;;1.75;;
55090;SDS011;40985;53.180;5.800;2023-05-23T11:52:41;12.88;;;1.58;;
55090;SDS011;40985;53.180;5.800;2023-05-23T11:55:07;12.13;;;1.40;;
55090;SDS011;40985;53.180;5.800;2023-05-23T11:57:37;10.50;;;1.33;;
55090;SDS011;40985;53.180;5.800;2023-05-23T12:00:06;11.13;;;1.35;;
55090;SDS011;40985;53.180;5.800;2023-05-23T12:02:42;8.55;;;0.88;;
55090;SDS011;40985;53.180;5.800;2023-05-23T12:05:09;12.45;;;1.02;;
55090;SDS011;40985;53.180;5.800;2023-05-23T12:07:48;16.55;;;1.08;;
55090;SDS011;40985;53.180;5.800;2023-05-23T12:10:14;8.95;;;1.27;;
55090;SDS011;40985;53.180;5.800;2023-05-23T12:12:41;11.48;;;1.42;;
55090;SDS011;40985;53.180;5.800;2023-05-23T12:15:10;14.55;;;1.67;;
55090;SDS011;40985;53.180;5.800;2023-05-23T12:17:45;10.98;;;1.23;;
55090;SDS011;40985;53.180;5.800;2023-05-23T12:20:11;12.55;;;1.30;;
55090;SDS011;40985;53.180;5.800;2023-05-23T12:22:37;10.48;;;1.15;;
55090;SDS011;40985;53.180;5.800;2023-05-23T12:25:06;9.98;;;1.30;;
55090;SDS011;40985;53.180;5.800;2023-05-23T12:27:33;12.48;;;1.65;;
55090;SDS011;40985;53.180;5.800;2023-05-23T12:30:07;10.85;;;1.35;;
55090;SDS011;40985;53.180;5.800;2023-05-23T12:32:37;10.10;;;1.13;;
55090;SDS011;40985;53.180;5.800;2023-05-23T12:35:04;13.65;;;1.02;;
55090;SDS011;40985;53.180;5.800;2023-05-23T12:37:30;7.78;;;0.65;;
55090;SDS011;40985;53.180;5.800;2023-05-23T12:39:56;11.15;;;1.65;;
55090;SDS011;40985;53.180;5.800;2023-05-23T12:42:22;8.95;;;0.60;;
55090;SDS011;40985;53.180;5.800;2023-05-23T12:44:52;6.80;;;0.70;;
55090;SDS011;40985;53.180;5.800;2023-05-23T12:47:18;8.38;;;0.80;;
55090;SDS011;40985;53.180;5.800;2023-05-23T12:49:44;9.70;;;1.00;;
55090;SDS011;40985;53.180;5.800;2023-05-23T12:52:10;6.38;;;0.68;;
55090;SDS011;40985;53.180;5.800;2023-05-23T12:54:36;8.40;;;0.73;;
55090;SDS011;40985;53.180;5.800;2023-05-23T12:57:02;11.25;;;1.30;;
55090;SDS011;40985;53.180;5.800;2023-05-23T12:59:27;8.40;;;1.27;;
55090;SDS011;40985;53.180;5.800;2023-05-23T13:01:53;10.05;;;1.08;;
55090;SDS011;40985;53.180;5.800;2023-05-23T13:04:19;12.13;;;1.50;;
55090;SDS011;40985;53.180;5.800;2023-05-23T13:06:44;9.25;;;0.85;;
55090;SDS011;40985;53.180;5.800;2023-05-23T13:09:10;7.88;;;0.85;;
55090;SDS011;40985;53.180;5.800;2023-05-23T13:11:36;11.13;;;1.17;;
55090;SDS011;40985;53.180;5.800;2023-05-23T13:14:02;8.32;;;0.60;;
55090;SDS011;40985;53.180;5.800;2023-05-23T13:16:28;5.60;;;0.85;;
55090;SDS011;40985;53.180;5.800;2023-05-23T13:18:53;13.30;;;1.13;;
55090;SDS011;40985;53.180;5.800;2023-05-23T13:21:19;7.80;;;1.23;;
55090;SDS011;40985;53.180;5.800;2023-05-23T13:23:45;13.38;;;1.70;;
55090;SDS011;40985;53.180;5.800;2023-05-23T13:26:11;9.93;;;0.75;;
55090;SDS011;40985;53.180;5.800;2023-05-23T13:28:38;8.95;;;0.80;;
55090;SDS011;40985;53.180;5.800;2023-05-23T13:31:04;10.23;;;0.80;;
55090;SDS011;40985;53.180;5.800;2023-05-23T13:33:30;9.18;;;0.80;;
55090;SDS011;40985;53.180;5.800;2023-05-23T13:35:55;6.85;;;0.73;;
55090;SDS011;40985;53.180;5.800;2023-05-23T13:38:21;5.93;;;0.60;;
55090;SDS011;40985;53.180;5.800;2023-05-23T13:40:47;14.45;;;0.85;;
55090;SDS011;40985;53.180;5.800;2023-05-23T13:43:13;8.05;;;0.75;;
55090;SDS011;40985;53.180;5.800;2023-05-23T13:45:38;9.18;;;0.93;;
55090;SDS011;40985;53.180;5.800;2023-05-23T13:48:04;7.13;;;0.60;;
55090;SDS011;40985;53.180;5.800;2023-05-23T13:50:30;9.15;;;0.70;;
55090;SDS011;40985;53.180;5.800;2023-05-23T13:52:56;7.88;;;0.68;;
55090;SDS011;40985;53.180;5.800;2023-05-23T13:55:21;10.77;;;0.98;;
55090;SDS011;40985;53.180;5.800;2023-05-23T13:57:47;9.57;;;1.02;;
55090;SDS011;40985;53.180;5.800;2023-05-23T14:00:13;13.27;;;1.38;;
55090;SDS011;40985;53.180;5.800;2023-05-23T14:02:39;11.63;;;1.25;;
55090;SDS011;40985;53.180;5.800;2023-05-23T14:05:04;5.35;;;0.73;;
55090;SDS011;40985;53.180;5.800;2023-05-23T14:07:31;8.77;;;0.60;;
55090;SDS011;40985;53.180;5.800;2023-05-23T14:09:57;11.55;;;1.45;;
55090;SDS011;40985;53.180;5.800;2023-05-23T14:12:23;9.10;;;1.00;;
55090;SDS011;40985;53.180;5.800;2023-05-23T14:14:50;9.43;;;0.70;;
55090;SDS011;40985;53.180;5.800;2023-05-23T14:17:16;11.65;;;1.25;;
55090;SDS011;40985;53.180;5.800;2023-05-23T14:19:42;12.05;;;1.45;;
55090;SDS011;40985;53.180;5.800;2023-05-23T14:22:09;8.32;;;0.68;;
55090;SDS011;40985;53.180;5.800;2023-05-23T14:24:35;12.57;;;0.85;;
55090;SDS011;40985;53.180;5.800;2023-05-23T14:27:01;5.72;;;0.80;;
55090;SDS011;40985;53.180;5.800;2023-05-23T14:29:26;9.07;;;0.65;;
55090;SDS011;40985;53.180;5.800;2023-05-23T14:31:52;12.55;;;0.98;;
55090;SDS011;40985;53.180;5.800;2023-05-23T14:34:18;8.60;;;1.00;;
55090;SDS011;40985;53.180;5.800;2023-05-23T14:36:43;8.27;;;1.05;;
55090;SDS011;40985;53.180;5.800;2023-05-23T14:39:09;8.80;;;0.80;;
55090;SDS011;40985;53.180;5.800;2023-05-23T14:41:35;9.27;;;0.88;;
55090;SDS011;40985;53.180;5.800;2023-05-23T14:44:01;14.85;;;1.13;;
55090;SDS011;40985;53.180;5.800;2023-05-23T14:46:28;14.93;;;2.40;;
55090;SDS011;40985;53.180;5.800;2023-05-23T14:48:53;9.27;;;0.90;;
55090;SDS011;40985;53.180;5.800;2023-05-23T14:51:19;8.95;;;0.82;;
55090;SDS011;40985;53.180;5.800;2023-05-23T14:53:45;7.22;;;0.82;;
55090;SDS011;40985;53.180;5.800;2023-05-23T14:56:10;8.23;;;0.90;;
55090;SDS011;40985;53.180;5.800;2023-05-23T14:58:36;7.82;;;0.50;;
55090;SDS011;40985;53.180;5.800;2023-05-23T15:01:04;10.45;;;0.73;;
55090;SDS011;40985;53.180;5.800;2023-05-23T15:03:30;7.65;;;0.80;;
55090;SDS011;40985;53.180;5.800;2023-05-23T15:05:56;11.95;;;1.15;;
55090;SDS011;40985;53.180;5.800;2023-05-23T15:08:21;9.55;;;0.50;;
55090;SDS011;40985;53.180;5.800;2023-05-23T15:10:47;11.00;;;0.88;;
55090;SDS011;40985;53.180;5.800;2023-05-23T15:13:13;6.95;;;0.93;;